Time;durP1;ratioP1;P1;durP2;ratioP2;P2;SDS_P1;SDS_P2;PMS_P1;PMS_P2;Temp;Humidity;BMP_temperature;BMP_pressure;BME280_temperature;BME280_humidity;BME280_pressure;Samples;Min_cycle;Max_cycle;Signal;HPM_P1;HPM_P2
2024/03/15 00:02:21;;;;;;;6.55;2.50;;;13.40;99.90;;;;;;5034215;28;20494;-49
2024/03/15 00:04:47;;;;;;;3.90;2.05;;;13.40;99.90;;;;;;5033411;28;20036;-53
2024/03/15 00:07:13;;;;;;;6.80;2.13;;;13.30;99.90;;;;;;5034056;28;20037;-49
2024/03/15 00:09:39;;;;;;;5.53;2.20;;;13.30;99.90;;;;;;5033824;28;20076;-50
2024/03/15 00:12:05;;;;;;;6.18;2.75;;;13.20;99.90;;;;;;5033505;28;20041;-51
2024/03/15 00:14:30;;;;;;;5.10;2.08;;;13.20;99.90;;;;;;5015533;28;20098;-53
2024/03/15 00:16:56;;;;;;;5.47;2.13;;;13.30;99.90;;;;;;5033297;28;20025;-53
2024/03/15 00:19:22;;;;;;;3.67;2.10;;;13.30;99.90;;;;;;5033257;28;20359;-52
2024/03/15 00:21:48;;;;;;;4.68;2.10;;;13.30;99.90;;;;;;5033397;28;20033;-51
2024/03/15 00:24:14;;;;;;;5.22;1.90;;;13.20;99.90;;;;;;5033124;28;20034;-53
2024/03/15 00:26:41;;;;;;;3.92;1.85;;;13.20;99.90;;;;;;5033096;28;20037;-54
2024/03/15 00:29:07;;;;;;;4.80;2.00;;;13.10;99.90;;;;;;5032322;28;20061;-50
2024/03/15 00:31:33;;;;;;;3.33;1.77;;;13.20;99.90;;;;;;5032869;28;20504;-52
2024/03/15 00:33:59;;;;;;;3.72;2.08;;;13.10;99.90;;;;;;5032931;28;20064;-52
2024/03/15 00:36:24;;;;;;;5.07;2.25;;;13.20;99.90;;;;;;5033073;28;20065;-49
2024/03/15 00:38:53;;;;;;;6.03;2.08;;;13.20;99.90;;;;;;5032945;28;20041;-49
2024/03/15 00:41:19;;;;;;;4.72;2.22;;;13.20;99.90;;;;;;5033104;28;20036;-53
2024/03/15 00:43:47;;;;;;;5.80;1.98;;;13.20;99.90;;;;;;5014964;28;20464;-53
2024/03/15 00:46:14;;;;;;;5.57;2.50;;;13.20;99.90;;;;;;5032677;28;20167;-50
2024/03/15 00:48:40;;;;;;;7.47;2.28;;;13.20;99.90;;;;;;5014934;28;20030;-53
2024/03/15 00:51:06;;;;;;;6.57;2.55;;;13.10;99.90;;;;;;5014996;28;20060;-53
2024/03/15 00:53:32;;;;;;;6.70;2.10;;;13.10;99.90;;;;;;5014799;28;20029;-50
2024/03/15 00:55:57;;;;;;;5.80;2.92;;;13.10;99.90;;;;;;5032640;28;20044;-52
2024/03/15 00:58:23;;;;;;;6.45;1.95;;;13.10;99.90;;;;;;5032479;28;20033;-54
2024/03/15 01:00:48;;;;;;;5.38;2.05;;;13.10;99.90;;;;;;5032364;28;20458;-51
2024/03/15 01:03:20;;;;;;;4.45;2.25;;;13.10;99.90;;;;;;5032538;28;20029;-51
2024/03/15 01:05:46;;;;;;;5.55;2.08;;;13.10;99.90;;;;;;5014600;28;20044;-50
2024/03/15 01:08:13;;;;;;;5.53;2.20;;;13.10;99.90;;;;;;5032345;28;20390;-51
2024/03/15 01:10:38;;;;;;;4.67;1.97;;;13.10;99.90;;;;;;5032326;28;20089;-50
2024/03/15 01:13:05;;;;;;;7.60;2.27;;;13.00;99.90;;;;;;5032070;28;20179;-52
2024/03/15 01:15:31;;;;;;;6.63;1.80;;;13.00;99.90;;;;;;5032241;28;20037;-53
2024/03/15 01:17:57;;;;;;;3.90;1.77;;;13.00;99.90;;;;;;5032147;28;20367;-49
2024/03/15 01:20:23;;;;;;;6.65;2.00;;;13.00;99.90;;;;;;5032068;28;20043;-50
2024/03/15 01:22:49;;;;;;;4.97;2.22;;;13.00;99.90;;;;;;5032001;28;20033;-52
2024/03/15 01:25:14;;;;;;;4.97;2.30;;;13.00;99.90;;;;;;5031926;28;20025;-53
2024/03/15 01:27:40;;;;;;;4.07;1.80;;;12.90;99.90;;;;;;5031981;28;20486;-50
2024/03/15 01:30:09;;;;;;;3.05;2.00;;;12.90;99.90;;;;;;5031789;28;20064;-51
2024/03/15 01:32:35;;;;;;;5.35;1.95;;;12.90;99.90;;;;;;5031970;28;20079;-53
2024/03/15 01:35:02;;;;;;;4.32;1.80;;;12.90;99.90;;;;;;5031912;28;20045;-54
2024/03/15 01:37:28;;;;;;;5.72;2.00;;;12.90;99.90;;;;;;5031980;28;20515;-49
2024/03/15 01:39:53;;;;;;;6.80;2.10;;;13.00;99.90;;;;;;5031756;28;20037;-50
2024/03/15 01:42:19;;;;;;;3.63;1.90;;;13.10;99.90;;;;;;5031726;28;20034;-53
2024/03/15 01:44:53;;;;;;;4.78;1.90;;;13.00;99.90;;;;;;5031555;28;20111;-53
2024/03/15 01:47:20;;;;;;;3.78;1.80;;;13.00;99.90;;;;;;5032146;28;20037;-50
2024/03/15 01:49:46;;;;;;;4.90;1.77;;;13.00;99.90;;;;;;5031642;28;20048;-53
2024/03/15 01:52:13;;;;;;;3.87;1.90;;;13.00;99.90;;;;;;5031728;28;20038;-51
2024/03/15 01:54:44;;;;;;;4.60;2.20;;;13.10;99.90;;;;;;5031451;28;20029;-53
2024/03/15 01:57:10;;;;;;;4.22;1.90;;;13.10;99.90;;;;;;5031546;28;20386;-52
2024/03/15 01:59:35;;;;;;;6.60;1.88;;;13.20;99.90;;;;;;5031748;28;20034;-52
2024/03/15 02:02:05;;;;;;;5.67;2.00;;;13.20;99.90;;;;;;5031658;28;20065;-51
2024/03/15 02:04:31;;;;;;;5.18;2.10;;;13.10;99.90;;;;;;5031472;28;20099;-50
2024/03/15 02:06:57;;;;;;;3.42;1.60;;;13.10;99.90;;;;;;5031510;28;20037;-50
2024/03/15 02:09:24;;;;;;;5.60;2.28;;;13.20;99.90;;;;;;5031542;28;20136;-50
2024/03/15 02:11:51;;;;;;;4.83;2.27;;;13.20;99.90;;;;;;5032107;28;20033;-50
2024/03/15 02:14:16;;;;;;;5.50;2.22;;;13.20;99.90;;;;;;5031660;28;20487;-52
2024/03/15 02:16:42;;;;;;;3.53;2.10;;;13.20;99.90;;;;;;5031461;28;20029;-49
2024/03/15 02:19:09;;;;;;;4.55;2.00;;;13.20;99.90;;;;;;5031559;28;20034;-51
2024/03/15 02:21:35;;;;;;;6.97;2.53;;;13.30;99.90;;;;;;5031369;28;20056;-54
2024/03/15 02:24:01;;;;;;;4.88;2.33;;;13.20;99.90;;;;;;5031219;28;20484;-51
2024/03/15 02:26:27;;;;;;;4.53;2.30;;;13.20;99.90;;;;;;5031299;28;20512;-53
2024/03/15 02:28:53;;;;;;;5.93;2.40;;;13.30;99.90;;;;;;5031327;28;20057;-51
2024/03/15 02:31:21;;;;;;;6.93;2.10;;;13.30;99.90;;;;;;5031147;28;20116;-53
2024/03/15 02:33:47;;;;;;;4.35;2.03;;;13.20;99.90;;;;;;5031211;28;20030;-53
2024/03/15 02:36:15;;;;;;;3.45;1.88;;;13.30;99.90;;;;;;5031311;28;20029;-51
2024/03/15 02:38:43;;;;;;;4.80;1.95;;;13.30;99.90;;;;;;5031176;28;20037;-52
2024/03/15 02:41:09;;;;;;;6.75;2.05;;;13.30;99.90;;;;;;5031195;28;20099;-52
2024/03/15 02:43:39;;;;;;;4.50;1.90;;;13.30;99.90;;;;;;5031152;28;20441;-53
2024/03/15 02:46:05;;;;;;;5.38;2.03;;;13.30;99.90;;;;;;5031020;28;20544;-51
2024/03/15 02:48:32;;;;;;;6.18;2.00;;;13.40;99.90;;;;;;5031214;28;20405;-53
2024/03/15 02:50:58;;;;;;;3.90;1.98;;;13.40;99.90;;;;;;5031087;28;20366;-53
2024/03/15 02:53:25;;;;;;;3.42;2.22;;;13.30;99.90;;;;;;5033215;28;20036;-51
2024/03/15 02:55:50;;;;;;;5.32;2.00;;;13.50;99.90;;;;;;5034701;28;20034;-49
2024/03/15 02:58:18;;;;;;;6.88;2.08;;;13.50;99.90;;;;;;5034911;28;20033;-51
2024/03/15 03:00:46;;;;;;;5.35;1.77;;;13.40;99.90;;;;;;5034705;28;20087;-53
2024/03/15 03:03:12;;;;;;;5.55;2.10;;;13.40;99.90;;;;;;5000514;28;20029;-52
2024/03/15 03:05:38;;;;;;;5.63;2.20;;;13.40;99.90;;;;;;5034462;28;20030;-52
2024/03/15 03:08:04;;;;;;;5.75;1.92;;;13.40;99.90;;;;;;5034630;28;20044;-54
2024/03/15 03:10:30;;;;;;;4.30;2.00;;;13.40;99.90;;;;;;5034669;28;20454;-53
2024/03/15 03:12:56;;;;;;;3.50;2.00;;;13.40;99.90;;;;;;5034457;28;20041;-52
2024/03/15 03:15:22;;;;;;;3.35;1.80;;;13.40;99.90;;;;;;5034494;28;20112;-49
2024/03/15 03:17:48;;;;;;;4.13;1.85;;;13.40;99.90;;;;;;5034557;28;20034;-52
2024/03/15 03:20:19;;;;;;;5.35;1.98;;;13.40;99.90;;;;;;5034235;28;20079;-53
2024/03/15 03:22:51;;;;;;;4.10;1.98;;;13.40;99.90;;;;;;5034391;28;20473;-49
2024/03/15 03:25:19;;;;;;;6.00;2.10;;;13.40;99.90;;;;;;5034250;28;20042;-51
2024/03/15 03:27:44;;;;;;;4.63;1.70;;;13.40;99.90;;;;;;5034385;28;20033;-54
2024/03/15 03:30:10;;;;;;;4.22;1.85;;;13.40;99.90;;;;;;5034080;28;20099;-53
2024/03/15 03:32:36;;;;;;;4.82;2.10;;;13.40;99.90;;;;;;5034099;28;20030;-51
2024/03/15 03:35:04;;;;;;;6.38;1.77;;;13.40;99.90;;;;;;5034118;28;20115;-52
2024/03/15 03:37:31;;;;;;;4.43;1.73;;;13.40;99.90;;;;;;5034166;28;20128;-51
2024/03/15 03:39:56;;;;;;;5.45;2.00;;;13.50;99.90;;;;;;5033979;28;20038;-50
2024/03/15 03:42:24;;;;;;;4.57;1.90;;;13.40;99.90;;;;;;5034349;28;20028;-51
2024/03/15 03:44:50;;;;;;;5.00;1.80;;;13.40;99.90;;;;;;5033854;28;20040;-53
2024/03/15 03:47:15;;;;;;;4.78;2.08;;;13.40;99.90;;;;;;5034061;28;20022;-51
2024/03/15 03:49:41;;;;;;;5.07;2.00;;;13.40;99.90;;;;;;5016219;28;20051;-54
2024/03/15 03:52:07;;;;;;;4.70;1.80;;;13.40;99.90;;;;;;5034016;28;20029;-54
2024/03/15 03:54:33;;;;;;;2.78;1.65;;;13.40;99.90;;;;;;5015921;28;20033;-54
2024/03/15 03:56:59;;;;;;;3.80;1.90;;;13.40;99.90;;;;;;5033759;28;20029;-54
2024/03/15 03:59:24;;;;;;;5.95;1.90;;;13.30;99.90;;;;;;5033816;28;20037;-54
2024/03/15 04:01:50;;;;;;;4.03;1.98;;;13.30;99.90;;;;;;5015973;28;20068;-54
2024/03/15 04:04:16;;;;;;;5.63;2.20;;;13.30;99.90;;;;;;5032431;28;20034;-53
2024/03/15 04:06:51;;;;;;;6.47;2.40;;;13.30;99.90;;;;;;5033435;28;20030;-51
2024/03/15 04:09:21;;;;;;;6.05;2.00;;;13.30;99.90;;;;;;5033478;28;20037;-54
2024/03/15 04:11:47;;;;;;;4.70;2.17;;;13.30;99.90;;;;;;5033420;28;20032;-50
2024/03/15 04:14:13;;;;;;;3.60;1.90;;;13.30;99.90;;;;;;5033222;28;20425;-50
2024/03/15 04:16:39;;;;;;;7.95;2.22;;;13.20;99.90;;;;;;5033259;28;20037;-54
2024/03/15 04:19:08;;;;;;;4.50;1.95;;;13.10;99.90;;;;;;5033329;28;20163;-53
2024/03/15 04:21:34;;;;;;;4.68;2.15;;;13.10;99.90;;;;;;5033410;28;20029;-54
2024/03/15 04:24:01;;;;;;;4.78;2.03;;;13.00;99.90;;;;;;5032994;28;20041;-52
2024/03/15 04:26:28;;;;;;;5.18;2.13;;;13.10;99.90;;;;;;5033081;28;20051;-54
2024/03/15 04:28:54;;;;;;;3.40;1.80;;;13.10;99.90;;;;;;5033044;28;20125;-51
2024/03/15 04:31:21;;;;;;;3.58;1.77;;;13.00;99.90;;;;;;5015361;28;20049;-54
2024/03/15 04:33:49;;;;;;;4.93;2.05;;;13.10;99.90;;;;;;5033073;28;20393;-54
2024/03/15 04:36:15;;;;;;;3.92;2.00;;;13.00;99.90;;;;;;5033055;28;20102;-54
2024/03/15 04:38:41;;;;;;;4.85;2.20;;;13.00;99.90;;;;;;5032974;28;20030;-53
2024/03/15 04:41:10;;;;;;;4.97;2.20;;;13.00;99.90;;;;;;5032943;28;20107;-53
2024/03/15 04:43:40;;;;;;;;;;;13.00;99.90;;;;;;5033936;28;20037;-52
2024/03/15 04:46:07;;;;;;;;;;;12.90;99.90;;;;;;5033222;28;19919;-52
2024/03/15 04:48:33;;;;;;;6.10;1.90;;;12.90;99.90;;;;;;5032963;28;20343;-49
2024/03/15 04:51:00;;;;;;;6.77;2.00;;;12.90;99.90;;;;;;5014939;28;20068;-53
2024/03/15 04:53:26;;;;;;;5.07;2.15;;;12.90;99.90;;;;;;5032608;28;20037;-51
2024/03/15 04:55:52;;;;;;;4.63;2.20;;;12.90;99.90;;;;;;5032519;28;20021;-51
2024/03/15 04:58:17;;;;;;;6.38;2.08;;;12.90;99.90;;;;;;5032820;28;20037;-50
2024/03/15 05:00:43;;;;;;;8.30;2.20;;;13.00;99.90;;;;;;5033093;28;20022;-52
2024/03/15 05:03:09;;;;;;;6.03;2.10;;;13.00;99.90;;;;;;5032386;28;20539;-53
2024/03/15 05:05:35;;;;;;;4.70;2.00;;;12.90;99.90;;;;;;5032268;28;20598;-52
2024/03/15 05:08:02;;;;;;;9.30;2.00;;;12.90;99.90;;;;;;5032413;28;20034;-54
2024/03/15 05:10:28;;;;;;;5.55;2.15;;;12.90;99.90;;;;;;5032227;28;20148;-53
2024/03/15 05:12:53;;;;;;;6.43;2.28;;;12.90;99.90;;;;;;5032326;28;20456;-51
2024/03/15 05:15:20;;;;;;;3.83;1.83;;;12.90;99.90;;;;;;5031878;28;20112;-54
2024/03/15 05:17:46;;;;;;;3.88;2.13;;;13.00;99.90;;;;;;5032353;28;20037;-49
2024/03/15 05:20:12;;;;;;;4.85;1.90;;;12.90;99.90;;;;;;5032389;28;20052;-50
2024/03/15 05:22:39;;;;;;;4.45;1.98;;;12.90;99.90;;;;;;5031992;28;20497;-51
2024/03/15 05:25:08;;;;;;;5.50;2.03;;;12.90;99.90;;;;;;5032191;28;20353;-51
2024/03/15 05:27:34;;;;;;;5.47;2.00;;;12.90;99.90;;;;;;5032420;28;20061;-49
2024/03/15 05:30:00;;;;;;;3.95;1.80;;;12.80;99.90;;;;;;5032037;28;20127;-51
2024/03/15 05:32:28;;;;;;;4.75;1.92;;;12.80;99.90;;;;;;5032269;28;20025;-54
2024/03/15 05:34:53;;;;;;;6.55;2.10;;;12.80;99.90;;;;;;5031844;28;20030;-51
2024/03/15 05:37:19;;;;;;;4.97;2.42;;;12.90;99.90;;;;;;5031939;28;20596;-50
2024/03/15 05:39:45;;;;;;;4.33;1.67;;;13.00;99.90;;;;;;5031804;28;20037;-53
2024/03/15 05:42:11;;;;;;;5.72;1.98;;;12.90;99.90;;;;;;5031995;28;20065;-50
2024/03/15 05:44:37;;;;;;;4.70;2.42;;;12.80;99.90;;;;;;5031692;28;20029;-53
2024/03/15 05:47:02;;;;;;;5.43;2.08;;;12.80;99.90;;;;;;5031871;28;20116;-54
2024/03/15 05:49:28;;;;;;;6.33;2.03;;;12.80;99.90;;;;;;5032176;28;20417;-53
2024/03/15 05:51:54;;;;;;;4.40;1.77;;;12.80;99.90;;;;;;5031836;28;20022;-51
2024/03/15 05:54:20;;;;;;;5.95;2.30;;;12.80;99.90;;;;;;5031537;28;20112;-53
2024/03/15 05:56:45;;;;;;;5.47;2.00;;;12.80;99.90;;;;;;5032399;28;20048;-52
2024/03/15 05:59:14;;;;;;;5.68;1.98;;;12.70;99.90;;;;;;5031810;28;20037;-53
2024/03/15 06:01:39;;;;;;;4.07;1.85;;;12.70;99.90;;;;;;5014028;28;20033;-53
2024/03/15 06:04:05;;;;;;;5.15;2.00;;;12.70;99.90;;;;;;5031494;28;20026;-49
2024/03/15 06:06:33;;;;;;;3.15;1.83;;;12.80;99.90;;;;;;5031513;28;20022;-50
2024/03/15 06:09:00;;;;;;;6.18;1.80;;;12.90;99.90;;;;;;5031692;28;20398;-49
2024/03/15 06:11:27;;;;;;;5.50;2.10;;;12.90;99.90;;;;;;5031695;28;20025;-52
2024/03/15 06:13:53;;;;;;;5.03;1.92;;;13.00;99.90;;;;;;5031432;28;20470;-53
2024/03/15 06:16:25;;;;;;;4.93;1.98;;;13.00;99.90;;;;;;5031420;28;20032;-54
2024/03/15 06:18:52;;;;;;;7.45;2.20;;;13.00;99.90;;;;;;5031522;28;20489;-50
2024/03/15 06:21:17;;;;;;;4.95;2.00;;;13.00;99.90;;;;;;5031293;28;20132;-51
2024/03/15 06:23:43;;;;;;;6.22;2.00;;;13.00;99.90;;;;;;5031462;28;20120;-52
2024/03/15 06:26:09;;;;;;;4.22;2.00;;;13.00;99.90;;;;;;5031215;28;20034;-50
2024/03/15 06:28:36;;;;;;;3.97;1.85;;;13.00;99.90;;;;;;5033962;28;20032;-52
2024/03/15 06:31:04;;;;;;;6.00;2.35;;;13.00;99.90;;;;;;5035039;28;20033;-53
2024/03/15 06:33:33;;;;;;;11.70;4.65;;;13.10;99.90;;;;;;5035669;28;20025;-49
2024/03/15 06:36:02;;;;;;;5.30;2.97;;;13.10;99.90;;;;;;5035221;28;20029;-51
2024/03/15 06:38:51;;;;;;;7.85;3.88;;;13.10;99.90;;;;;;5035258;28;20037;-53
2024/03/15 06:49:24;;;;;;;4.43;2.03;;;13.30;99.90;;;;;;5034985;28;20026;-52
2024/03/15 06:54:35;;;;;;;7.10;2.70;;;13.40;99.90;;;;;;5034870;28;20088;-54
2024/03/15 06:57:00;;;;;;;7.85;2.20;;;13.40;99.90;;;;;;5034974;28;20037;-50
2024/03/15 06:59:26;;;;;;;7.63;2.72;;;13.50;99.90;;;;;;5035079;28;20036;-52
2024/03/15 07:01:52;;;;;;;4.15;1.73;;;13.60;99.90;;;;;;5034787;28;20029;-52
2024/03/15 07:04:18;;;;;;;8.15;3.20;;;13.70;99.90;;;;;;5034682;28;20482;-51
2024/03/15 07:06:44;;;;;;;6.07;2.00;;;13.60;99.90;;;;;;5034835;28;20036;-49
2024/03/15 07:09:19;;;;;;;5.13;1.90;;;13.60;99.90;;;;;;5034645;28;20037;-51
2024/03/15 07:11:47;;;;;;;6.65;2.20;;;13.60;99.90;;;;;;5034674;28;20025;-49
2024/03/15 07:14:13;;;;;;;4.40;1.80;;;13.50;99.90;;;;;;5034537;28;20029;-50
2024/03/15 07:16:39;;;;;;;4.35;2.13;;;13.60;99.90;;;;;;5017200;28;20103;-51
2024/03/15 07:19:05;;;;;;;5.95;2.05;;;13.60;99.90;;;;;;5034893;28;20108;-51
2024/03/15 07:21:34;;;;;;;4.45;1.58;;;13.60;99.90;;;;;;5034414;28;20089;-51
2024/03/15 07:24:00;;;;;;;6.03;2.28;;;13.60;99.90;;;;;;5034277;28;20056;-53
2024/03/15 07:26:26;;;;;;;5.63;1.55;;;13.70;99.90;;;;;;5034110;28;20039;-52
2024/03/15 07:28:51;;;;;;;5.75;2.25;;;13.60;99.90;;;;;;5034387;28;20375;-49
2024/03/15 07:31:18;;;;;;;5.15;2.42;;;13.70;99.90;;;;;;5034174;28;20029;-49
2024/03/15 07:33:44;;;;;;;9.02;2.22;;;13.80;99.90;;;;;;5034198;28;20029;-50
2024/03/15 07:36:13;;;;;;;5.68;2.55;;;13.80;99.90;;;;;;5034120;28;20374;-50
2024/03/15 07:38:42;;;;;;;4.00;1.98;;;13.70;99.90;;;;;;5016329;28;20076;-52
2024/03/15 07:41:11;;;;;;;5.57;2.83;;;13.70;99.90;;;;;;5016586;28;20375;-50
2024/03/15 07:43:37;;;;;;;;;;;13.70;99.90;;;;;;5034692;28;20069;-49
2024/03/15 07:46:05;;;;;;;5.50;2.80;;;13.80;99.90;;;;;;5016275;28;19963;-49
2024/03/15 07:48:31;;;;;;;6.78;2.45;;;14.00;99.90;;;;;;5033834;28;20060;-52
2024/03/15 07:50:56;;;;;;;7.63;2.42;;;14.10;99.90;;;;;;5033863;28;20060;-52
2024/03/15 07:53:22;;;;;;;5.35;2.05;;;14.20;99.90;;;;;;5033705;28;20029;-53
2024/03/15 07:55:50;;;;;;;4.93;1.92;;;14.20;99.90;;;;;;5033889;28;20029;-50
2024/03/15 07:58:16;;;;;;;8.50;2.55;;;14.30;99.90;;;;;;5034089;28;20398;-50
2024/03/15 08:00:43;;;;;;;5.80;2.72;;;14.30;99.90;;;;;;5015981;28;20071;-50
2024/03/15 08:03:10;;;;;;;3.42;1.73;;;14.30;99.90;;;;;;5033833;28;20044;-54
2024/03/15 08:05:37;;;;;;;6.72;2.45;;;14.30;99.90;;;;;;5033552;28;20045;-52
2024/03/15 08:08:06;;;;;;;4.13;2.03;;;14.20;99.90;;;;;;5033631;28;20553;-53
2024/03/15 08:10:32;;;;;;;6.88;2.30;;;14.20;99.90;;;;;;5033608;28;20079;-54
2024/03/15 08:12:58;;;;;;;4.45;2.20;;;14.20;99.90;;;;;;5033473;28;20037;-52
2024/03/15 08:15:26;;;;;;;4.85;2.20;;;14.20;99.90;;;;;;5033454;28;20025;-53
2024/03/15 08:17:53;;;;;;;5.13;2.55;;;14.20;99.90;;;;;;5033341;28;20143;-51
2024/03/15 08:20:18;;;;;;;4.63;1.92;;;14.10;99.90;;;;;;5033185;28;20044;-52
2024/03/15 08:22:44;;;;;;;6.25;2.75;;;14.10;99.90;;;;;;5033393;28;20038;-53
2024/03/15 08:25:10;;;;;;;3.97;2.20;;;14.20;99.90;;;;;;5033288;28;20124;-54
2024/03/15 08:27:37;;;;;;;5.65;2.17;;;14.20;99.90;;;;;;5033265;28;20031;-53
2024/03/15 08:30:03;;;;;;;6.45;3.03;;;14.20;99.90;;;;;;5015432;28;20079;-52
2024/03/15 08:32:30;;;;;;;5.53;2.35;;;14.30;99.90;;;;;;5033296;28;20379;-52
2024/03/15 08:34:58;;;;;;;4.70;2.65;;;14.30;99.90;;;;;;5032844;28;20034;-51
2024/03/15 08:37:24;;;;;;;4.97;2.65;;;14.30;99.90;;;;;;5033173;28;20029;-50
2024/03/15 08:39:51;;;;;;;5.88;2.47;;;14.30;99.90;;;;;;5033009;28;20021;-53
2024/03/15 08:42:17;;;;;;;6.43;2.38;;;14.30;99.90;;;;;;5033015;28;20371;-49
2024/03/15 08:44:43;;;;;;;3.97;2.05;;;14.30;99.90;;;;;;5032914;28;20021;-49
2024/03/15 08:47:09;;;;;;;4.65;2.15;;;14.40;99.90;;;;;;5033002;28;20029;-51
2024/03/15 08:49:36;;;;;;;8.38;2.30;;;14.40;99.90;;;;;;5032551;28;20070;-50
2024/03/15 08:52:03;;;;;;;5.63;2.05;;;14.30;99.90;;;;;;5014710;28;20550;-49
2024/03/15 08:54:29;;;;;;;6.40;2.33;;;14.30;99.90;;;;;;5032748;28;20053;-50
2024/03/15 08:56:56;;;;;;;7.90;2.33;;;14.40;99.90;;;;;;5032860;28;20482;-50
2024/03/15 08:59:23;;;;;;;3.55;2.17;;;14.40;99.90;;;;;;5014990;28;20044;-50
2024/03/15 09:01:48;;;;;;;5.13;2.55;;;14.40;99.90;;;;;;5032546;28;20029;-53
2024/03/15 09:04:15;;;;;;;3.80;2.08;;;14.50;99.90;;;;;;5014969;28;20534;-50
2024/03/15 09:06:41;;;;;;;4.97;2.10;;;14.50;99.90;;;;;;5032647;28;20046;-53
2024/03/15 09:09:15;;;;;;;5.05;2.38;;;14.70;99.90;;;;;;5032503;28;20017;-50
2024/03/15 09:11:43;;;;;;;4.35;2.30;;;14.70;99.90;;;;;;5032388;28;20437;-50
2024/03/15 09:14:10;;;;;;;5.80;2.42;;;14.70;99.90;;;;;;5032184;28;20482;-49
2024/03/15 09:16:37;;;;;;;5.97;2.70;;;14.70;99.90;;;;;;5032229;28;20041;-53
2024/03/15 09:19:03;;;;;;;6.20;2.53;;;14.80;99.90;;;;;;5032234;28;20044;-51
2024/03/15 09:21:32;;;;;;;6.32;2.40;;;14.90;99.90;;;;;;5032449;28;20041;-49
2024/03/15 09:24:00;;;;;;;;;;;15.00;99.90;;;;;;5032730;28;20478;-51
2024/03/15 09:26:27;;;;;;;5.95;2.97;;;15.00;99.90;;;;;;5032088;28;19960;-53
2024/03/15 09:28:55;;;;;;;6.32;2.30;;;15.10;99.90;;;;;;5032178;28;20033;-50
2024/03/15 09:31:24;;;;;;;3.97;2.35;;;15.30;99.90;;;;;;5031874;28;20049;-53
2024/03/15 09:33:51;;;;;;;4.45;2.33;;;15.30;99.90;;;;;;5032019;28;20064;-50
2024/03/15 09:36:18;;;;;;;4.47;2.30;;;15.40;99.90;;;;;;5014371;28;20026;-53
2024/03/15 09:38:46;;;;;;;5.47;2.22;;;15.40;99.90;;;;;;5032081;28;20037;-52
2024/03/15 09:41:15;;;;;;;5.18;2.13;;;15.60;99.90;;;;;;5031920;28;20036;-49
2024/03/15 09:43:41;;;;;;;6.95;2.65;;;15.70;99.90;;;;;;5031838;28;20038;-51
2024/03/15 09:46:14;;;;;;;5.18;2.20;;;15.60;99.90;;;;;;5031800;28;20555;-52
2024/03/15 09:48:43;;;;;;;6.70;2.17;;;15.70;99.90;;;;;;5031791;28;20467;-52
2024/03/15 09:51:13;;;;;;;4.60;2.10;;;15.80;99.90;;;;;;5031882;28;20034;-51
2024/03/15 09:53:39;;;;;;;7.35;2.40;;;16.00;99.90;;;;;;5031826;28;20033;-50
2024/03/15 09:56:14;;;;;;;5.53;2.30;;;16.10;99.90;;;;;;5013905;28;20034;-48
2024/03/15 09:58:46;;;;;;;6.43;2.22;;;16.10;99.90;;;;;;5031768;28;20029;-51
2024/03/15 10:01:13;;;;;;;7.32;2.13;;;16.10;99.90;;;;;;5031718;28;20033;-51
2024/03/15 10:03:41;;;;;;;5.82;2.00;;;16.20;99.90;;;;;;5030741;28;20040;-53
2024/03/15 10:06:09;;;;;;;6.03;2.03;;;16.20;99.90;;;;;;5031643;28;20080;-52
2024/03/15 10:08:36;;;;;;;5.45;1.70;;;16.10;99.90;;;;;;5031656;28;20037;-51
2024/03/15 10:11:02;;;;;;;3.75;1.30;;;16.10;99.90;;;;;;5031572;28;20045;-52
2024/03/15 10:13:29;;;;;;;3.90;1.60;;;16.00;99.90;;;;;;5031439;28;20046;-53
2024/03/15 10:15:55;;;;;;;7.30;3.47;;;16.00;99.90;;;;;;5031516;28;20042;-52
2024/03/15 10:18:20;;;;;;;5.78;2.33;;;16.00;99.90;;;;;;5031650;28;20035;-52
2024/03/15 10:20:47;;;;;;;6.93;2.15;;;15.90;99.90;;;;;;5031505;28;20221;-51
2024/03/15 10:23:13;;;;;;;3.70;1.40;;;16.30;99.90;;;;;;5031393;28;20075;-52
2024/03/15 10:25:40;;;;;;;4.78;1.48;;;17.60;99.90;;;;;;5031708;28;20518;-50
2024/03/15 10:28:10;;;;;;;3.55;1.60;;;18.90;99.90;;;;;;5031641;28;20040;-53
2024/03/15 10:30:36;;;;;;;4.05;2.28;;;20.20;99.90;;;;;;5031308;28;20516;-53
2024/03/15 10:33:06;;;;;;;6.55;1.75;;;21.00;99.90;;;;;;5031365;28;20068;-54
2024/03/15 10:35:31;;;;;;;3.25;1.52;;;21.30;99.90;;;;;;5031142;28;20030;-51
2024/03/15 10:37:58;;;;;;;4.40;1.70;;;21.30;99.90;;;;;;5031281;28;20437;-55
2024/03/15 10:40:26;;;;;;;4.97;2.00;;;21.00;99.90;;;;;;5031143;28;20102;-53
2024/03/15 10:42:53;;;;;;;3.92;1.50;;;20.90;99.90;;;;;;5031135;28;20034;-53
2024/03/15 10:45:24;;;;;;;4.83;1.33;;;21.50;99.90;;;;;;5031057;28;20033;-53
2024/03/15 10:47:51;;;;;;;3.33;1.40;;;21.40;99.90;;;;;;5031423;28;20033;-53
2024/03/15 10:50:18;;;;;;;5.50;1.92;;;21.20;99.90;;;;;;5013283;28;20521;-54
2024/03/15 10:52:46;;;;;;;4.13;1.65;;;20.80;99.90;;;;;;5031121;28;20033;-54
2024/03/15 10:55:20;;;;;;;4.80;1.60;;;20.80;99.90;;;;;;5031468;28;20375;-53
2024/03/15 10:57:47;;;;;;;3.63;1.58;;;20.60;99.90;;;;;;5031425;28;20061;-54
2024/03/15 11:00:26;;;;;;;3.80;1.33;;;19.90;99.90;;;;;;5031201;28;20080;-51
2024/03/15 11:02:54;;;;;;;3.75;1.27;;;19.50;99.90;;;;;;5031250;28;20029;-54
2024/03/15 11:05:22;;;;;;;4.10;1.20;;;19.30;99.90;;;;;;5031165;28;20479;-50
2024/03/15 11:08:00;;;;;;;2.60;1.10;;;19.20;99.90;;;;;;5013940;28;20406;-54
2024/03/15 11:10:26;;;;;;;;;;;19.10;99.90;;;;;;5031810;28;20105;-54
2024/03/15 11:12:52;;;;;;;4.18;1.40;;;18.70;99.90;;;;;;5031274;28;20461;-54
2024/03/15 11:15:19;;;;;;;4.60;1.48;;;18.60;99.90;;;;;;5035061;28;20087;-54
2024/03/15 11:17:45;;;;;;;5.10;1.50;;;18.30;99.90;;;;;;5034854;28;20036;-54
2024/03/15 11:20:12;;;;;;;1.98;1.10;;;18.00;99.90;;;;;;5034898;28;20033;-52
2024/03/15 11:22:38;;;;;;;4.43;1.50;;;17.70;99.90;;;;;;5034309;28;20486;-55
2024/03/15 11:25:06;;;;;;;3.60;1.30;;;17.50;99.90;;;;;;5034252;28;20034;-51
2024/03/15 11:27:47;;;;;;;3.47;1.30;;;17.50;99.90;;;;;;5034418;28;20053;-50
2024/03/15 11:30:13;;;;;;;4.85;1.50;;;17.50;99.90;;;;;;5034251;28;20445;-52
2024/03/15 11:32:38;;;;;;;2.72;1.30;;;17.70;99.90;;;;;;5034291;28;20048;-50
2024/03/15 11:35:09;;;;;;;3.70;1.13;;;17.70;99.90;;;;;;5034257;28;20037;-53
2024/03/15 11:37:35;;;;;;;3.38;1.10;;;17.60;99.90;;;;;;5034269;28;20071;-50
2024/03/15 11:40:01;;;;;;;4.75;1.10;;;17.50;99.90;;;;;;5034165;28;20474;-49
2024/03/15 11:42:26;;;;;;;5.88;1.40;;;17.30;99.90;;;;;;5016524;28;20052;-54
2024/03/15 11:44:52;;;;;;;3.38;1.35;;;17.20;99.90;;;;;;5033819;28;20029;-54
2024/03/15 11:47:18;;;;;;;3.28;1.60;;;17.20;99.90;;;;;;5016594;28;20029;-52
2024/03/15 11:49:44;;;;;;;2.22;0.90;;;17.10;99.90;;;;;;5033871;28;20499;-54
2024/03/15 11:52:10;;;;;;;4.50;1.40;;;17.00;99.90;;;;;;5033917;28;20021;-54
2024/03/15 11:54:36;;;;;;;3.85;1.38;;;16.80;99.90;;;;;;5033804;28;20018;-54
2024/03/15 11:57:02;;;;;;;3.38;1.27;;;16.60;99.90;;;;;;5033890;28;20069;-54
2024/03/15 11:59:29;;;;;;;3.47;1.15;;;17.10;99.90;;;;;;5032447;28;20048;-51
2024/03/15 12:01:55;;;;;;;4.10;1.48;;;17.70;99.90;;;;;;5033934;28;20042;-50
2024/03/15 12:04:24;;;;;;;2.20;0.90;;;17.90;99.90;;;;;;5015984;28;20026;-51
2024/03/15 12:06:50;;;;;;;2.85;1.20;;;17.80;99.90;;;;;;5033649;28;20032;-51
2024/03/15 12:09:16;;;;;;;3.80;0.90;;;17.70;99.90;;;;;;5033592;28;20026;-54
2024/03/15 12:11:45;;;;;;;2.95;1.13;;;17.70;99.90;;;;;;5033474;28;20598;-52
2024/03/15 12:14:13;;;;;;;3.55;1.00;;;17.90;99.90;;;;;;5033443;28;20057;-51
2024/03/15 12:16:43;;;;;;;3.25;1.17;;;18.20;99.90;;;;;;5015917;28;20037;-49
2024/03/15 12:19:13;;;;;;;4.82;0.95;;;18.50;99.90;;;;;;5033787;28;20040;-51
2024/03/15 12:21:40;;;;;;;3.13;1.48;;;19.50;99.90;;;;;;5033392;28;20033;-50
2024/03/15 12:24:06;;;;;;;4.05;1.58;;;20.00;99.90;;;;;;5033369;28;20483;-50
2024/03/15 12:26:32;;;;;;;3.38;1.10;;;20.00;99.90;;;;;;5032368;28;20049;-51
2024/03/15 12:28:58;;;;;;;6.22;2.20;;;19.30;99.90;;;;;;5033082;28;20030;-49
2024/03/15 12:31:24;;;;;;;3.80;1.00;;;18.80;99.90;;;;;;5033011;28;20033;-50
2024/03/15 12:33:53;;;;;;;2.95;0.90;;;18.30;99.90;;;;;;5033110;28;20471;-52
2024/03/15 12:36:18;;;;;;;4.45;1.40;;;18.00;99.90;;;;;;5033120;28;20033;-50
2024/03/15 12:38:44;;;;;;;2.45;0.98;;;17.70;99.90;;;;;;5033046;28;20056;-49
2024/03/15 12:41:10;;;;;;;2.67;1.00;;;17.50;99.90;;;;;;5032983;28;20049;-49
2024/03/15 12:43:36;;;;;;;1.67;0.70;;;17.30;99.90;;;;;;5033066;28;20025;-50
2024/03/15 12:46:08;;;;;;;1.48;0.75;;;17.20;99.90;;;;;;5032871;28;20596;-49
2024/03/15 12:48:34;;;;;;;1.48;0.77;;;17.00;99.90;;;;;;5015095;28;20036;-50
2024/03/15 12:51:01;;;;;;;3.15;0.90;;;17.00;99.90;;;;;;5032759;28;20033;-50
2024/03/15 12:53:27;;;;;;;4.72;1.15;;;16.90;99.90;;;;;;5032906;28;20108;-51
2024/03/15 12:55:52;;;;;;;3.05;1.25;;;16.90;99.90;;;;;;5032974;28;20108;-52
2024/03/15 12:58:18;;;;;;;4.78;1.30;;;16.80;99.90;;;;;;5032839;28;20544;-52